Ava Foss — WDF5779 — position and weather

sailwx.info

Track history (hours):
 
Tides and Currents Weather Stations Pressure Air Temp Water Temp Dewpoint Dewpoint Depression Visibility Wind Speed Wind Dir Waves Ship Positions

Ava Foss

Owner: Foss Maritime Company, Seattle, WA. More information available from US FCC via Universal Licensing System and Coast Guard Vessel Documentation Center.

Last reported at 2017-May-24 18:54 UTC. Time now 2017-May-29 11:13 UTC.
Position N 33°55' W 118°28'.

Length 10 m; draft 2.5 m.

Type: Passenger vessel. MMSI: 367467120.

Date/timePositionNaut miles runAvg speedWind from/ knotsBaromVisibWave heightAir tempDewpointWater temp
2017-May-24 18:54N 33°55' W 118°28'0 1.2
2017-May-24 18:30N 33°55' W 118°27'4 7.6
2017-May-24 17:56N 33°51' W 118°25'3 0.6
2017-May-24 13:40N 33°52' W 118°28'4 3.2
2017-May-24 12:33N 33°51' W 118°24'0 0.0
2017-May-24 12:12N 33°51' W 118°24'6 0.4
2017-May-23 20:53N 33°54' W 118°29'0 0.3
2017-May-23 20:16N 33°54' W 118°29'2 1.0
2017-May-23 18:36N 33°55' W 118°27'2 9.6
2017-May-23 18:25N 33°54' W 118°29'0 0.1
2017-May-23 16:44N 33°54' W 118°29'0 1.7
2017-May-23 16:27N 33°54' W 118°29'1 0.0
2017-May-21 17:04N 33°54' W 118°27'3 0.8
2017-May-21 13:48N 33°52' W 118°26'2 0.6
2017-May-21 09:33N 33°50' W 118°24'416.0
2017-May-21 09:19N 33°53' W 118°27'2 5.5
2017-May-21 09:00N 33°55' W 118°27'0 0.4
2017-May-21 08:30N 33°55' W 118°27'0 0.5
2017-May-21 07:50N 33°55' W 118°27'0 0.6
2017-May-21 07:29N 33°55' W 118°27'3 0.1
2017-May-19 04:37N 33°52' W 118°26'2 6.6
2017-May-19 04:15N 33°54' W 118°27'0 0.2
2017-May-19 04:00N 33°54' W 118°27'4 7.9
2017-May-19 03:27N 33°51' W 118°24'  
Track history (hours):
 
Tides and Currents Weather Stations Pressure Air Temp Water Temp Dewpoint Dewpoint Depression Visibility Wind Speed Wind Dir Waves Ship Positions

Ava Foss

Owner: Foss Maritime Company, Seattle, WA. More information available from US FCC via Universal Licensing System and Coast Guard Vessel Documentation Center.

Last reported at 2017-May-24 18:54 UTC. Time now 2017-May-29 11:13 UTC.
Position N 33°55' W 118°28'.

Length 10 m; draft 2.5 m.

Type: Passenger vessel. MMSI: 367467120.

Date/timePositionNaut miles runAvg speedWind from/ knotsBaromVisibWave heightAir tempDewpointWater temp
2017-May-24 18:54N 33°55' W 118°28'0 1.2
2017-May-24 18:30N 33°55' W 118°27'4 7.6
2017-May-24 17:56N 33°51' W 118°25'3 0.6
2017-May-24 13:40N 33°52' W 118°28'4 3.2
2017-May-24 12:33N 33°51' W 118°24'0 0.0
2017-May-24 12:12N 33°51' W 118°24'6 0.4
2017-May-23 20:53N 33°54' W 118°29'0 0.3
2017-May-23 20:16N 33°54' W 118°29'2 1.0
2017-May-23 18:36N 33°55' W 118°27'2 9.6
2017-May-23 18:25N 33°54' W 118°29'0 0.1
2017-May-23 16:44N 33°54' W 118°29'0 1.7
2017-May-23 16:27N 33°54' W 118°29'1 0.0
2017-May-21 17:04N 33°54' W 118°27'3 0.8
2017-May-21 13:48N 33°52' W 118°26'2 0.6
2017-May-21 09:33N 33°50' W 118°24'416.0
2017-May-21 09:19N 33°53' W 118°27'2 5.5
2017-May-21 09:00N 33°55' W 118°27'0 0.4
2017-May-21 08:30N 33°55' W 118°27'0 0.5
2017-May-21 07:50N 33°55' W 118°27'0 0.6
2017-May-21 07:29N 33°55' W 118°27'3 0.1
2017-May-19 04:37N 33°52' W 118°26'2 6.6
2017-May-19 04:15N 33°54' W 118°27'0 0.2
2017-May-19 04:00N 33°54' W 118°27'4 7.9
2017-May-19 03:27N 33°51' W 118°24'  

Dump ship's entire track history